createdAt,value
2023-04-25T00:00:36.098Z,619.00
2023-04-25T00:01:36.115Z,614.00
2023-04-25T00:02:36.412Z,621.00
2023-04-25T00:03:36.489Z,616.00
2023-04-25T00:04:36.746Z,618.00
2023-04-25T00:05:36.707Z,612.00
2023-04-25T00:06:36.437Z,620.00
2023-04-25T00:07:36.513Z,622.00
2023-04-25T00:08:36.558Z,620.00
2023-04-25T00:09:36.631Z,625.00
2023-04-25T00:10:37.128Z,626.00
2023-04-25T00:11:36.794Z,628.00
2023-04-25T00:12:36.790Z,629.00
2023-04-25T00:13:36.870Z,627.00
2023-04-25T00:14:36.942Z,622.00
2023-04-25T00:15:37.132Z,631.00
2023-04-25T00:16:37.172Z,626.00
2023-04-25T00:17:37.161Z,616.00
2023-04-25T00:18:37.189Z,620.00
2023-04-25T00:19:37.252Z,622.00
2023-04-25T00:20:37.623Z,626.00
2023-04-25T00:21:37.380Z,629.00
2023-04-25T00:22:37.429Z,622.00
2023-04-25T00:23:37.516Z,626.00
2023-04-25T00:24:37.613Z,621.00
2023-04-25T00:25:38.112Z,623.00
2023-04-25T00:26:37.713Z,626.00
2023-04-25T00:27:37.776Z,625.00
2023-04-25T00:28:37.832Z,630.00
2023-04-25T00:29:37.906Z,619.00
2023-04-25T00:30:38.160Z,622.00
2023-04-25T00:31:38.054Z,619.00
2023-04-25T00:32:38.084Z,624.00
2023-04-25T00:33:38.133Z,624.00
2023-04-25T00:34:38.223Z,619.00
2023-04-25T00:35:38.632Z,623.00
2023-04-25T00:36:38.327Z,619.00
2023-04-25T00:37:38.378Z,628.00
2023-04-25T00:38:38.476Z,626.00
2023-04-25T00:39:38.562Z,625.00
2023-04-25T00:40:38.632Z,618.00
2023-04-25T00:41:38.646Z,628.00
2023-04-25T00:42:38.723Z,635.00
2023-04-25T00:43:38.758Z,632.00
2023-04-25T00:44:38.818Z,623.00
2023-04-25T00:45:39.129Z,635.00
2023-04-25T00:46:39.055Z,635.00
2023-04-25T00:47:39.081Z,631.00
2023-04-25T00:48:39.073Z,636.00
2023-04-25T00:49:39.147Z,631.00
2023-04-25T00:50:39.637Z,630.00
2023-04-25T00:51:39.269Z,633.00
2023-04-25T00:52:39.323Z,638.00
2023-04-25T00:53:39.401Z,631.00
2023-04-25T00:54:39.449Z,634.00
2023-04-25T00:55:39.708Z,630.00
2023-04-25T00:56:39.597Z,634.00
2023-04-25T00:57:39.620Z,631.00
2023-04-25T00:58:39.680Z,625.00
2023-04-25T00:59:39.817Z,628.00
2023-04-25T01:00:40.157Z,623.00
2023-04-25T01:01:39.988Z,626.00
2023-04-25T01:02:40.002Z,626.00
2023-04-25T01:03:40.120Z,626.00
2023-04-25T01:04:40.037Z,629.00
2023-04-25T01:05:40.146Z,628.00
2023-04-25T01:06:40.192Z,635.00
2023-04-25T01:07:40.227Z,635.00
2023-04-25T01:08:40.253Z,635.00
2023-04-25T01:09:40.318Z,638.00
2023-04-25T01:10:40.655Z,633.00
2023-04-25T01:11:40.441Z,635.00
2023-04-25T01:12:40.496Z,636.00
2023-04-25T01:13:40.556Z,626.00
2023-04-25T01:14:40.626Z,631.00
2023-04-25T01:15:41.140Z,635.00
2023-04-25T01:16:40.792Z,630.00
2023-04-25T01:17:40.898Z,626.00
2023-04-25T01:18:40.891Z,629.00
2023-04-25T01:19:40.958Z,628.00
2023-04-25T01:20:41.156Z,629.00
2023-04-25T01:21:41.146Z,627.00
2023-04-25T01:22:41.128Z,628.00
2023-04-25T01:23:41.221Z,620.00
2023-04-25T01:24:41.212Z,628.00
2023-04-25T01:25:41.652Z,630.00
2023-04-25T01:26:41.308Z,633.00
2023-04-25T01:27:41.429Z,631.00
2023-04-25T01:28:41.414Z,624.00
2023-04-25T01:29:41.499Z,624.00
2023-04-25T01:30:41.553Z,622.00
2023-04-25T01:31:41.611Z,626.00
2023-04-25T01:32:41.706Z,621.00
2023-04-25T01:33:41.749Z,630.00
2023-04-25T01:34:41.819Z,634.00
2023-04-25T01:35:41.852Z,636.00
2023-04-25T01:36:42.145Z,639.00
2023-04-25T01:37:41.965Z,637.00
2023-04-25T01:38:42.004Z,637.00
2023-04-25T01:39:42.117Z,632.00
2023-04-25T01:40:42.170Z,635.00
2023-04-25T01:41:42.230Z,638.00
2023-04-25T01:42:42.277Z,637.00
2023-04-25T01:43:42.337Z,636.00
2023-04-25T01:44:42.426Z,640.00
2023-04-25T01:45:42.473Z,635.00
2023-04-25T01:46:42.546Z,633.00
2023-04-25T01:47:42.644Z,630.00
2023-04-25T01:48:42.661Z,628.00
2023-04-25T01:49:42.757Z,633.00
2023-04-25T01:50:42.809Z,632.00
2023-04-25T01:51:42.833Z,632.00
2023-04-25T01:52:42.917Z,631.00
2023-04-25T01:53:43.000Z,628.00
2023-04-25T01:54:43.103Z,626.00
2023-04-25T01:55:43.231Z,625.00
2023-04-25T01:56:43.669Z,619.00
2023-04-25T01:57:43.263Z,625.00
2023-04-25T01:58:43.329Z,630.00
2023-04-25T01:59:43.345Z,618.00
2023-04-25T02:00:43.414Z,627.00
2023-04-25T02:01:43.669Z,625.00
2023-04-25T02:02:43.673Z,625.00
2023-04-25T02:03:43.799Z,623.00
2023-04-25T02:04:43.703Z,623.00
2023-04-25T02:05:43.671Z,621.00
2023-04-25T02:06:44.168Z,625.00
2023-04-25T02:07:43.771Z,621.00
2023-04-25T02:08:43.784Z,622.00
2023-04-25T02:09:43.814Z,625.00
2023-04-25T02:10:43.933Z,618.00
2023-04-25T02:11:44.185Z,620.00
2023-04-25T02:12:43.995Z,623.00
2023-04-25T02:13:44.044Z,619.00
2023-04-25T02:14:44.095Z,621.00
2023-04-25T02:15:44.254Z,617.00
2023-04-25T02:16:44.841Z,620.00
2023-04-25T02:17:44.251Z,625.00
2023-04-25T02:18:44.289Z,627.00
2023-04-25T02:19:44.355Z,624.00
2023-04-25T02:20:44.394Z,627.00
2023-04-25T02:21:44.654Z,626.00
2023-04-25T02:22:44.534Z,626.00
2023-04-25T02:23:44.546Z,631.00
2023-04-25T02:24:44.666Z,628.00
2023-04-25T02:25:44.658Z,624.00
2023-04-25T02:26:45.196Z,627.00
2023-04-25T02:27:44.814Z,621.00
2023-04-25T02:28:44.809Z,625.00
2023-04-25T02:29:44.880Z,621.00
2023-04-25T02:30:44.995Z,629.00
2023-04-25T02:31:45.224Z,625.00
2023-04-25T02:32:45.125Z,629.00
2023-04-25T02:33:45.103Z,632.00
2023-04-25T02:34:45.162Z,629.00
2023-04-25T02:35:45.189Z,628.00
2023-04-25T02:36:45.696Z,630.00
2023-04-25T02:37:45.279Z,628.00
2023-04-25T02:38:45.352Z,629.00
2023-04-25T02:39:45.415Z,636.00
2023-04-25T02:40:45.500Z,626.00
2023-04-25T02:41:45.688Z,632.00
2023-04-25T02:42:45.583Z,625.00
2023-04-25T02:43:45.610Z,629.00
2023-04-25T02:44:45.670Z,623.00
2023-04-25T02:45:45.763Z,628.00
2023-04-25T02:46:46.209Z,624.00
2023-04-25T02:47:45.864Z,633.00
2023-04-25T02:48:45.897Z,628.00
2023-04-25T02:49:45.919Z,625.00
2023-04-25T02:50:45.963Z,627.00
2023-04-25T02:51:46.202Z,631.00
2023-04-25T02:52:46.078Z,622.00
2023-04-25T02:53:46.108Z,624.00
2023-04-25T02:54:46.147Z,628.00
2023-04-25T02:55:46.203Z,631.00
2023-04-25T02:56:46.676Z,632.00
2023-04-25T02:57:46.313Z,628.00
2023-04-25T02:58:46.338Z,634.00
2023-04-25T02:59:46.358Z,630.00
2023-04-25T03:00:46.484Z,633.00
2023-04-25T03:01:46.712Z,634.00
2023-04-25T03:02:46.524Z,626.00
2023-04-25T03:03:46.573Z,630.00
2023-04-25T03:04:46.615Z,635.00
2023-04-25T03:05:46.617Z,633.00
2023-04-25T03:06:46.692Z,630.00
2023-04-25T03:07:46.693Z,628.00
2023-04-25T03:08:46.784Z,631.00
2023-04-25T03:09:46.770Z,629.00
2023-04-25T03:10:46.811Z,623.00
2023-04-25T03:11:47.202Z,632.00
2023-04-25T03:12:46.898Z,632.00
2023-04-25T03:13:46.951Z,625.00
2023-04-25T03:14:46.973Z,627.00
2023-04-25T03:15:47.056Z,636.00
2023-04-25T03:16:47.209Z,632.00
2023-04-25T03:17:47.171Z,626.00
2023-04-25T03:18:47.162Z,627.00
2023-04-25T03:19:47.190Z,630.00
2023-04-25T03:20:47.252Z,629.00
2023-04-25T03:21:47.672Z,630.00
2023-04-25T03:22:47.350Z,628.00
2023-04-25T03:23:47.394Z,634.00
2023-04-25T03:24:47.438Z,636.00
2023-04-25T03:25:47.464Z,633.00
2023-04-25T03:26:47.676Z,631.00
2023-04-25T03:27:47.540Z,635.00
2023-04-25T03:28:47.626Z,630.00
2023-04-25T03:29:47.661Z,634.00
2023-04-25T03:30:47.728Z,631.00
2023-04-25T03:31:48.236Z,627.00
2023-04-25T03:32:47.853Z,634.00
2023-04-25T03:33:47.910Z,628.00
2023-04-25T03:34:47.835Z,632.00
2023-04-25T03:35:47.839Z,631.00
2023-04-25T03:36:48.190Z,631.00
2023-04-25T03:37:47.865Z,628.00
2023-04-25T03:38:47.904Z,629.00
2023-04-25T03:39:47.972Z,632.00
2023-04-25T03:40:47.931Z,634.00
2023-04-25T03:41:48.207Z,628.00
2023-04-25T03:42:47.955Z,614.00
2023-04-25T03:43:48.222Z,625.00
2023-04-25T03:44:47.971Z,622.00
2023-04-25T03:45:48.038Z,624.00
2023-04-25T03:46:48.223Z,625.00
2023-04-25T03:47:48.116Z,624.00
2023-04-25T03:48:48.118Z,617.00
2023-04-25T03:49:48.106Z,617.00
2023-04-25T03:50:48.146Z,618.00
2023-04-25T03:51:48.199Z,625.00
2023-04-25T03:52:48.219Z,619.00
2023-04-25T03:53:49.417Z,619.00
2023-04-25T03:54:48.297Z,623.00
2023-04-25T03:55:48.343Z,620.00
2023-04-25T03:56:48.726Z,625.00
2023-04-25T03:57:48.400Z,625.00
2023-04-25T03:58:48.407Z,625.00
2023-04-25T03:59:48.413Z,620.00
2023-04-25T04:00:48.420Z,618.00
2023-04-25T04:01:48.748Z,618.00
2023-04-25T04:02:48.612Z,621.00
2023-04-25T04:03:48.732Z,622.00
2023-04-25T04:04:48.677Z,621.00
2023-04-25T04:05:48.594Z,618.00
2023-04-25T04:06:48.627Z,617.00
2023-04-25T04:07:48.635Z,617.00
2023-04-25T04:08:48.641Z,619.00
2023-04-25T04:09:48.692Z,618.00
2023-04-25T04:10:48.729Z,612.00
2023-04-25T04:11:49.277Z,622.00
2023-04-25T04:12:48.787Z,620.00
2023-04-25T04:13:49.184Z,619.00
2023-04-25T04:14:48.861Z,625.00
2023-04-25T04:15:48.941Z,619.00
2023-04-25T04:16:48.913Z,613.00
2023-04-25T04:17:49.000Z,619.00
2023-04-25T04:18:49.013Z,618.00
2023-04-25T04:19:49.009Z,620.00
2023-04-25T04:20:49.090Z,617.00
2023-04-25T04:21:49.093Z,623.00
2023-04-25T04:22:49.235Z,621.00
2023-04-25T04:23:49.542Z,618.00
2023-04-25T04:24:49.128Z,617.00
2023-04-25T04:25:49.217Z,620.00
2023-04-25T04:26:49.227Z,618.00
2023-04-25T04:27:49.253Z,620.00
2023-04-25T04:28:49.283Z,622.00
2023-04-25T04:29:49.294Z,618.00
2023-04-25T04:30:49.303Z,617.00
2023-04-25T04:31:49.437Z,620.00
2023-04-25T04:32:50.662Z,614.00
2023-04-25T04:33:49.779Z,621.00
2023-04-25T04:34:49.509Z,616.00
2023-04-25T04:35:49.561Z,608.00
2023-04-25T04:36:49.642Z,610.00
2023-04-25T04:37:49.633Z,608.00
2023-04-25T04:38:49.676Z,602.00
2023-04-25T04:39:49.692Z,608.00
2023-04-25T04:40:49.728Z,610.00
2023-04-25T04:41:49.721Z,610.00
2023-04-25T04:42:49.738Z,613.00
2023-04-25T04:43:50.066Z,609.00
2023-04-25T04:44:49.821Z,610.00
2023-04-25T04:45:49.868Z,607.00
2023-04-25T04:46:49.895Z,604.00
2023-04-25T04:47:50.246Z,607.00
2023-04-25T04:48:49.900Z,608.00
2023-04-25T04:49:49.896Z,607.00
2023-04-25T04:50:49.938Z,603.00
2023-04-25T04:51:49.957Z,603.00
2023-04-25T04:52:50.013Z,605.00
2023-04-25T04:53:50.380Z,604.00
2023-04-25T04:54:50.039Z,602.00
2023-04-25T04:55:50.067Z,602.00
2023-04-25T04:56:50.098Z,599.00
2023-04-25T04:57:50.149Z,599.00
2023-04-25T04:58:50.172Z,600.00
2023-04-25T04:59:50.082Z,600.00
2023-04-25T05:00:50.121Z,603.00
2023-04-25T05:01:50.123Z,596.00
2023-04-25T05:02:50.234Z,600.00
2023-04-25T05:03:50.507Z,601.00
2023-04-25T05:04:50.223Z,601.00
2023-04-25T05:05:50.141Z,598.00
2023-04-25T05:06:50.148Z,603.00
2023-04-25T05:07:50.148Z,602.00
2023-04-25T05:08:50.167Z,600.00
2023-04-25T05:09:50.181Z,594.00
2023-04-25T05:10:50.176Z,599.00
2023-04-25T05:11:50.213Z,594.00
2023-04-25T05:12:50.199Z,597.00
2023-04-25T05:13:50.389Z,604.00
2023-04-25T05:14:50.201Z,604.00
2023-04-25T05:15:50.231Z,600.00
2023-04-25T05:16:50.296Z,602.00
2023-04-25T05:18:57.058Z,500.00
2023-04-25T05:19:57.023Z,500.00
2023-04-25T05:20:57.036Z,500.00
2023-04-25T05:21:57.020Z,500.00
2023-04-25T05:22:57.103Z,500.00
2023-04-25T05:23:57.001Z,502.00
2023-04-25T05:24:57.161Z,501.00
2023-04-25T05:25:57.025Z,506.00
2023-04-25T05:26:56.999Z,505.00
2023-04-25T05:27:56.969Z,512.00
2023-04-25T05:28:56.983Z,506.00
2023-04-25T05:29:56.967Z,509.00
2023-04-25T05:30:56.951Z,508.00
2023-04-25T05:31:56.981Z,506.00
2023-04-25T05:32:56.997Z,506.00
2023-04-25T05:33:56.930Z,501.00
2023-04-25T05:34:56.952Z,504.00
2023-04-25T05:35:56.901Z,509.00
2023-04-25T05:36:56.908Z,513.00
2023-04-25T05:37:56.884Z,512.00
2023-04-25T05:38:56.929Z,514.00
2023-04-25T05:39:56.923Z,516.00
2023-04-25T05:40:56.891Z,520.00
2023-04-25T05:41:56.925Z,514.00
2023-04-25T05:42:57.273Z,523.00
2023-04-25T05:43:58.144Z,515.00
2023-04-25T05:44:56.881Z,528.00
2023-04-25T05:45:56.924Z,521.00
2023-04-25T05:46:56.833Z,522.00
2023-04-25T05:47:57.258Z,520.00
2023-04-25T05:48:56.828Z,522.00
2023-04-25T05:49:56.804Z,521.00
2023-04-25T05:50:56.823Z,523.00
2023-04-25T05:51:56.793Z,526.00
2023-04-25T05:52:57.230Z,522.00
2023-04-25T05:53:56.787Z,525.00
2023-04-25T05:54:56.810Z,520.00
2023-04-25T05:55:56.777Z,522.00
2023-04-25T05:56:56.780Z,518.00
2023-04-25T05:57:56.784Z,517.00
2023-04-25T05:58:56.761Z,518.00
2023-04-25T05:59:56.771Z,516.00
2023-04-25T06:00:56.800Z,522.00
2023-04-25T06:01:56.758Z,512.00
2023-04-25T06:02:56.866Z,527.00
2023-04-25T06:03:56.978Z,516.00
2023-04-25T06:04:56.908Z,524.00
2023-04-25T06:05:56.856Z,522.00
2023-04-25T06:06:56.713Z,517.00
2023-04-25T06:07:56.721Z,521.00
2023-04-25T06:08:56.683Z,517.00
2023-04-25T06:09:56.722Z,517.00
2023-04-25T06:10:56.796Z,511.00
2023-04-25T06:11:56.832Z,516.00
2023-04-25T06:12:57.237Z,513.00
2023-04-25T06:13:56.961Z,515.00
2023-04-25T06:14:57.004Z,515.00
2023-04-25T06:15:57.141Z,517.00
2023-04-25T06:16:58.046Z,517.00
2023-04-25T06:17:57.115Z,517.00
2023-04-25T06:18:57.059Z,518.00
2023-04-25T06:19:57.078Z,512.00
2023-04-25T06:20:57.040Z,512.00
2023-04-25T06:21:57.036Z,517.00
2023-04-25T06:22:57.269Z,510.00
2023-04-25T06:23:57.006Z,514.00
2023-04-25T06:24:57.005Z,509.00
2023-04-25T06:25:57.071Z,509.00
2023-04-25T06:26:57.118Z,504.00
2023-04-25T06:27:57.261Z,504.00
2023-04-25T06:28:57.254Z,509.00
2023-04-25T06:29:57.331Z,500.00
2023-04-25T06:30:57.416Z,500.00
2023-04-25T06:31:57.445Z,503.00
2023-04-25T06:32:57.489Z,499.00
2023-04-25T06:33:57.548Z,509.00
2023-04-25T06:34:57.589Z,510.00
2023-04-25T06:35:57.661Z,508.00
2023-04-25T06:36:57.722Z,512.00
2023-04-25T06:37:57.791Z,521.00
2023-04-25T06:38:57.845Z,511.00
2023-04-25T06:39:57.942Z,510.00
2023-04-25T06:40:57.960Z,507.00
2023-04-25T06:41:58.015Z,515.00
2023-04-25T06:42:58.100Z,504.00
2023-04-25T06:43:58.787Z,503.00
2023-04-25T06:44:58.216Z,503.00
2023-04-25T06:45:58.286Z,508.00
2023-04-25T06:46:58.412Z,512.00
2023-04-25T06:47:58.490Z,510.00
2023-04-25T06:48:58.483Z,512.00
2023-04-25T06:49:58.509Z,506.00
2023-04-25T06:50:58.642Z,518.00
2023-04-25T06:51:58.647Z,523.00
2023-04-25T06:52:58.703Z,526.00
2023-04-25T06:53:58.852Z,528.00
2023-04-25T06:54:58.813Z,522.00
2023-04-25T06:55:58.890Z,524.00
2023-04-25T06:56:58.954Z,525.00
2023-04-25T06:57:59.258Z,523.00
2023-04-25T06:58:59.065Z,535.00
2023-04-25T07:00:00.772Z,532.00
2023-04-25T07:00:59.139Z,528.00
2023-04-25T07:01:59.111Z,526.00
2023-04-25T07:02:59.448Z,524.00
2023-04-25T07:03:59.316Z,536.00
2023-04-25T07:04:59.101Z,531.00
2023-04-25T07:05:59.083Z,527.00
2023-04-25T07:06:59.131Z,521.00
2023-04-25T07:07:59.047Z,521.00
2023-04-25T07:08:59.078Z,521.00
2023-04-25T07:09:59.068Z,516.00
2023-04-25T07:10:59.764Z,519.00
2023-04-25T07:11:59.040Z,513.00
2023-04-25T07:12:59.291Z,514.00
2023-04-25T07:13:59.042Z,511.00
2023-04-25T07:14:59.071Z,516.00
2023-04-25T07:15:59.012Z,511.00
2023-04-25T07:16:59.136Z,514.00
2023-04-25T07:17:59.065Z,519.00
2023-04-25T07:18:59.012Z,516.00
2023-04-25T07:19:58.966Z,518.00
2023-04-25T07:20:58.977Z,509.00
2023-04-25T07:21:58.949Z,510.00
2023-04-25T07:22:59.307Z,517.00
2023-04-25T07:23:58.956Z,514.00
2023-04-25T07:24:58.943Z,520.00
2023-04-25T07:25:58.958Z,515.00
2023-04-25T07:26:58.983Z,517.00
2023-04-25T07:27:58.908Z,516.00
2023-04-25T07:28:58.923Z,518.00
2023-04-25T07:29:58.898Z,510.00
2023-04-25T07:30:58.983Z,514.00
2023-04-25T07:31:59.012Z,511.00
2023-04-25T07:32:59.181Z,511.00
2023-04-25T07:34:01.700Z,512.00
2023-04-25T07:34:59.106Z,519.00
2023-04-25T07:35:59.060Z,515.00
2023-04-25T07:36:59.048Z,509.00
2023-04-25T07:37:59.106Z,512.00
2023-04-25T07:38:59.068Z,513.00
2023-04-25T07:39:59.074Z,506.00
2023-04-25T07:40:59.033Z,512.00
2023-04-25T07:41:59.070Z,511.00
2023-04-25T07:42:59.034Z,510.00
2023-04-25T07:43:59.024Z,516.00
2023-04-25T07:44:59.067Z,514.00
2023-04-25T07:45:59.069Z,506.00
2023-04-25T07:46:59.042Z,500.00
2023-04-25T07:47:59.066Z,505.00
2023-04-25T07:48:59.042Z,531.00
2023-04-25T07:49:59.008Z,564.00
2023-04-25T07:50:58.980Z,572.00
2023-04-25T07:51:58.997Z,582.00
2023-04-25T07:52:58.969Z,593.00
2023-04-25T07:53:58.985Z,610.00
2023-04-25T07:54:58.972Z,621.00
2023-04-25T07:55:58.985Z,638.00
2023-04-25T07:56:58.966Z,647.00
2023-04-25T07:57:58.943Z,663.00
2023-04-25T07:58:58.931Z,700.00
2023-04-25T07:59:58.949Z,751.00
2023-04-25T08:00:58.913Z,770.00
2023-04-25T08:01:58.933Z,797.00
2023-04-25T08:02:58.989Z,851.00
2023-04-25T08:03:59.185Z,879.00
2023-04-25T08:04:58.991Z,897.00
2023-04-25T08:05:59.061Z,950.00
2023-04-25T08:06:58.884Z,969.00
2023-04-25T08:07:58.851Z,996.00
2023-04-25T08:08:58.835Z,1026.00
2023-04-25T08:09:58.822Z,1053.00
2023-04-25T08:10:58.849Z,1104.00
2023-04-25T08:11:58.842Z,1116.00
2023-04-25T08:12:58.809Z,1115.00
2023-04-25T08:13:58.820Z,1137.00
2023-04-25T08:14:58.837Z,1169.00
2023-04-25T08:15:58.906Z,1198.00
2023-04-25T08:16:58.777Z,1222.00
2023-04-25T08:17:58.836Z,1228.00
2023-04-25T08:18:58.831Z,1254.00
2023-04-25T08:19:58.797Z,1263.00
2023-04-25T08:20:58.778Z,1272.00
2023-04-25T08:21:58.751Z,1303.00
2023-04-25T08:22:58.750Z,1327.00
2023-04-25T08:23:58.750Z,1334.00
2023-04-25T08:24:58.734Z,1375.00
2023-04-25T08:25:58.764Z,1369.00
2023-04-25T08:26:58.712Z,1389.00
2023-04-25T08:27:58.708Z,1400.00
2023-04-25T08:28:58.834Z,1434.00
2023-04-25T08:29:58.695Z,1445.00
2023-04-25T08:30:58.757Z,1469.00
2023-04-25T08:31:58.677Z,1476.00
2023-04-25T08:32:58.782Z,1503.00
2023-04-25T08:33:58.840Z,1519.00
2023-04-25T08:34:58.670Z,1518.00
2023-04-25T08:35:58.680Z,1553.00
2023-04-25T08:36:58.649Z,1564.00
2023-04-25T08:37:58.669Z,1588.00
2023-04-25T08:38:58.827Z,1592.00
2023-04-25T08:39:58.776Z,1613.00
2023-04-25T08:40:58.827Z,1623.00
2023-04-25T08:41:58.863Z,1662.00
2023-04-25T08:42:58.928Z,1664.00
2023-04-25T08:43:59.375Z,1685.00
2023-04-25T08:44:59.072Z,1668.00
2023-04-25T08:45:59.071Z,1699.00
2023-04-25T08:46:59.183Z,1728.00
2023-04-25T08:47:59.227Z,1577.00
2023-04-25T08:48:59.395Z,1667.00
2023-04-25T08:49:59.249Z,1705.00
2023-04-25T08:50:59.301Z,1662.00
2023-04-25T08:51:59.345Z,1446.00
2023-04-25T08:52:59.396Z,1407.00
2023-04-25T08:54:06.799Z,1445.00
2023-04-25T08:55:00.415Z,1338.00
2023-04-25T08:55:59.413Z,1324.00
2023-04-25T08:56:59.456Z,1315.00
2023-04-25T08:57:59.399Z,1310.00
2023-04-25T08:58:59.533Z,1304.00
2023-04-25T08:59:59.536Z,1330.00
2023-04-25T09:00:59.572Z,1368.00
2023-04-25T09:01:59.670Z,1419.00
2023-04-25T09:02:59.686Z,1471.00
2023-04-25T09:03:59.961Z,1488.00
2023-04-25T09:04:59.702Z,1545.00
2023-04-25T09:05:59.776Z,1597.00
2023-04-25T09:06:59.785Z,1587.00
2023-04-25T09:07:59.797Z,1596.00
2023-04-25T09:08:59.798Z,1570.00
2023-04-25T09:09:59.795Z,1490.00
2023-04-25T09:10:59.855Z,1516.00
2023-04-25T09:11:59.809Z,1471.00
2023-04-25T09:12:59.873Z,1394.00
2023-04-25T09:14:00.345Z,1321.00
2023-04-25T09:14:59.872Z,1333.00
2023-04-25T09:15:59.981Z,1332.00
2023-04-25T09:17:00.046Z,1331.00
2023-04-25T09:17:59.981Z,1245.00
2023-04-25T09:18:59.938Z,1142.00
2023-04-25T09:19:59.939Z,1118.00
2023-04-25T09:21:02.110Z,1165.00
2023-04-25T09:21:59.937Z,1168.00
2023-04-25T09:22:59.955Z,1175.00
2023-04-25T09:24:00.380Z,1148.00
2023-04-25T09:24:59.953Z,1137.00
2023-04-25T09:25:59.962Z,1012.00
2023-04-25T09:26:59.941Z,840.00
2023-04-25T09:27:59.921Z,921.00
2023-04-25T09:29:00.350Z,734.00
2023-04-25T09:29:59.898Z,667.00
2023-04-25T09:30:59.903Z,696.00
2023-04-25T09:31:59.913Z,596.00
2023-04-25T09:32:59.892Z,591.00
2023-04-25T09:34:00.486Z,592.00
2023-04-25T09:34:59.904Z,538.00
2023-04-25T09:35:59.889Z,500.00
2023-04-25T09:36:59.847Z,590.00
2023-04-25T09:37:59.866Z,627.00
2023-04-25T09:39:00.375Z,636.00
2023-04-25T09:39:59.841Z,626.00
2023-04-25T09:40:59.856Z,643.00
2023-04-25T09:41:59.813Z,560.00
2023-04-25T09:42:59.856Z,556.00
2023-04-25T09:44:00.129Z,512.00
2023-04-25T09:44:59.850Z,500.00
2023-04-25T09:45:59.839Z,484.00
2023-04-25T09:46:59.785Z,532.00
2023-04-25T09:47:59.816Z,649.00
2023-04-25T09:49:00.428Z,835.00
2023-04-25T09:49:59.886Z,489.00
2023-04-25T09:51:00.052Z,526.00
2023-04-25T09:51:59.930Z,717.00
2023-04-25T09:52:59.890Z,999.00
2023-04-25T09:53:59.945Z,1112.00
2023-04-25T09:54:59.890Z,1164.00
2023-04-25T09:55:59.883Z,1099.00
2023-04-25T09:56:59.955Z,969.00
2023-04-25T09:58:00.050Z,868.00
2023-04-25T09:59:00.117Z,890.00
2023-04-25T10:00:00.361Z,810.00
2023-04-25T10:01:00.209Z,669.00
2023-04-25T10:02:00.250Z,736.00
2023-04-25T10:03:00.473Z,746.00
2023-04-25T10:04:00.644Z,916.00
2023-04-25T10:05:00.903Z,661.00
2023-04-25T10:06:00.523Z,642.00
2023-04-25T10:07:00.587Z,672.00
2023-04-25T10:08:00.645Z,730.00
2023-04-25T10:09:00.704Z,707.00
2023-04-25T10:10:00.862Z,754.00
2023-04-25T10:11:00.792Z,651.00
2023-04-25T10:12:00.894Z,649.00
2023-04-25T10:13:00.907Z,635.00
2023-04-25T10:14:01.027Z,602.00
2023-04-25T10:15:01.072Z,610.00
2023-04-25T10:16:01.204Z,547.00
2023-04-25T10:17:01.119Z,500.00
2023-04-25T10:18:01.169Z,498.00
2023-04-25T10:19:01.127Z,500.00
2023-04-25T10:20:01.161Z,495.00
2023-04-25T10:21:01.198Z,512.00
2023-04-25T10:22:01.173Z,501.00
2023-04-25T10:23:01.196Z,514.00
2023-04-25T10:24:01.268Z,509.00
2023-04-25T10:25:01.320Z,500.00
2023-04-25T10:26:01.325Z,526.00
2023-04-25T10:27:01.369Z,547.00
2023-04-25T10:28:01.480Z,554.00
2023-04-25T10:29:01.468Z,567.00
2023-04-25T10:30:01.558Z,600.00
2023-04-25T10:31:01.749Z,591.00
2023-04-25T10:32:01.630Z,584.00
2023-04-25T10:33:01.592Z,618.00
2023-04-25T10:34:01.595Z,603.00
2023-04-25T10:35:01.852Z,604.00
2023-04-25T10:36:01.623Z,603.00
2023-04-25T10:37:01.660Z,538.00
2023-04-25T10:38:01.696Z,506.00
2023-04-25T10:39:01.736Z,473.00
2023-04-25T10:40:01.798Z,524.00
2023-04-25T10:41:01.976Z,585.00
2023-04-25T10:42:01.891Z,674.00
2023-04-25T10:43:01.942Z,932.00
2023-04-25T10:44:01.985Z,1068.00
2023-04-25T10:45:02.395Z,1224.00
2023-04-25T10:46:02.058Z,1289.00
2023-04-25T10:47:02.173Z,1348.00
2023-04-25T10:48:02.142Z,1574.00
2023-04-25T10:49:02.060Z,1602.00
2023-04-25T10:50:02.377Z,1654.00
2023-04-25T10:51:02.150Z,1744.00
2023-04-25T10:52:02.198Z,1760.00
2023-04-25T10:53:02.223Z,1909.00
2023-04-25T10:54:02.304Z,1880.00
2023-04-25T10:55:02.353Z,1950.00
2023-04-25T10:56:02.384Z,1962.00
2023-04-25T10:57:02.456Z,1967.00
2023-04-25T10:58:02.512Z,2025.00
2023-04-25T10:59:02.508Z,2094.00
2023-04-25T11:00:02.876Z,2111.00
2023-04-25T11:01:02.597Z,2119.00
2023-04-25T11:02:02.681Z,2180.00
2023-04-25T11:03:02.771Z,2225.00
2023-04-25T11:04:02.907Z,2235.00
2023-04-25T11:05:03.020Z,2294.00
2023-04-25T11:06:02.597Z,2324.00
2023-04-25T11:07:06.366Z,2349.00
2023-04-25T11:08:07.980Z,2351.00
2023-04-25T11:09:03.605Z,2353.00
2023-04-25T11:10:02.863Z,2367.00
2023-04-25T11:11:02.597Z,2405.00
2023-04-25T11:12:02.576Z,2443.00
2023-04-25T11:13:02.585Z,2463.00
2023-04-25T11:14:02.567Z,2478.00
2023-04-25T11:15:02.897Z,2528.00
2023-04-25T11:16:12.315Z,2561.00
2023-04-25T11:17:03.699Z,2562.00
2023-04-25T11:18:02.593Z,2569.00
2023-04-25T11:19:02.543Z,2588.00
2023-04-25T11:20:02.908Z,2609.00
2023-04-25T11:21:02.511Z,2649.00
2023-04-25T11:22:02.512Z,2668.00
2023-04-25T11:24:02.530Z,2698.00
2023-04-25T11:25:02.899Z,2713.00
2023-04-25T11:26:02.606Z,2741.00
2023-04-25T11:27:02.647Z,2716.00
2023-04-25T11:28:02.665Z,2772.00
2023-04-25T11:29:02.758Z,2754.00
2023-04-25T11:30:02.920Z,2767.00
2023-04-25T11:31:02.841Z,2769.00
2023-04-25T11:32:02.925Z,2782.00
2023-04-25T11:33:02.959Z,2829.00
2023-04-25T11:34:02.990Z,2866.00
2023-04-25T11:35:03.385Z,2829.00
2023-04-25T11:36:03.030Z,2857.00
2023-04-25T11:37:03.502Z,2596.00
2023-04-25T11:38:03.127Z,2655.00
2023-04-25T11:39:03.193Z,2424.00
2023-04-25T11:40:03.276Z,2108.00
2023-04-25T11:41:03.330Z,2176.00
2023-04-25T11:42:07.468Z,2273.00
2023-04-25T11:43:04.282Z,2275.00
2023-04-25T11:44:03.306Z,2285.00
2023-04-25T11:45:03.459Z,2306.00
2023-04-25T11:46:03.362Z,2327.00
2023-04-25T11:47:03.255Z,2313.00
2023-04-25T11:48:03.333Z,2231.00
2023-04-25T11:49:03.252Z,2140.00
2023-04-25T11:50:03.428Z,2061.00
2023-04-25T11:51:03.299Z,2014.00
2023-04-25T11:52:03.220Z,2012.00
2023-04-25T11:53:03.227Z,2029.00
2023-04-25T11:54:03.227Z,2027.00
2023-04-25T11:55:03.422Z,1972.00
2023-04-25T11:56:03.225Z,1969.00
2023-04-25T11:57:03.313Z,1929.00
2023-04-25T11:58:03.367Z,1926.00
2023-04-25T11:59:03.373Z,1965.00
2023-04-25T12:00:03.923Z,1941.00
2023-04-25T12:01:03.501Z,1898.00
2023-04-25T12:02:03.494Z,1810.00
2023-04-25T12:03:03.632Z,1662.00
2023-04-25T12:04:03.938Z,1667.00
2023-04-25T12:05:16.017Z,1671.00
2023-04-25T12:06:04.801Z,1671.00
2023-04-25T12:07:03.627Z,1640.00
2023-04-25T12:08:03.494Z,1590.00
2023-04-25T12:09:03.490Z,1596.00
2023-04-25T12:10:03.889Z,1571.00
2023-04-25T12:11:03.545Z,1566.00
2023-04-25T12:12:03.632Z,1480.00
2023-04-25T12:13:04.695Z,1505.00
2023-04-25T12:14:03.524Z,1445.00
2023-04-25T12:15:03.907Z,1458.00
2023-04-25T12:16:03.636Z,1461.00
2023-04-25T12:17:03.612Z,1408.00
2023-04-25T12:18:03.726Z,1375.00
2023-04-25T12:19:03.713Z,1308.00
2023-04-25T12:20:03.912Z,1295.00
2023-04-25T12:21:03.814Z,1273.00
2023-04-25T12:22:04.204Z,1285.00
2023-04-25T12:23:03.833Z,1252.00
2023-04-25T12:24:03.887Z,1218.00
2023-04-25T12:25:03.963Z,1159.00